Swansboro, North Carolina
Current Conditions -  °F | °C
As of 10:57 PM on Saturday 22 Nov 2014 (Local Time) from KNJM Reporting Station
Clear Clear  
Wind Chill: 45°   Ceiling: Unl
Heat Index: 47°   Visibility: 10mi
Dew Point: 40°   Wind: 5mph
Humidity: 77%   Direction: 40°NE
Pressure: 30.35"   Gusts: NA
Location:  34.69°N, 77.12°W
Report Text: KNJM 230357Z AUTO 04004KT 10SM CLR 08/04 A3035 RMK AO2 SLP280 T00830044
Loading
Personal Weather Stations






























Interactive Weather Map New forecast layout! Learn more

10-Day Weather Forecast

Advertisements
Track Severe Weather on mobile